Time;durP1;ratioP1;P1;durP2;ratioP2;P2;SDS_P1;SDS_P2;PMS_P1;PMS_P2;Temp;Humidity;BMP_temperature;BMP_pressure;BME280_temperature;BME280_humidity;BME280_pressure;Samples;Min_cycle;Max_cycle;Signal;HPM_P1;HPM_P2
2023/12/24 00:04:09;;;;;;;23.58;10.20;;;;;;;;;;10291512;28;20037;-73
2023/12/24 00:09:09;;;;;;;17.50;8.60;;;;;;;;;;10283554;28;20037;-75
2023/12/24 00:14:09;;;;;;;13.93;7.85;;;;;;;;;;10302658;28;20041;-73
2023/12/24 00:19:09;;;;;;;17.15;9.70;;;;;;;;;;10298118;28;20030;-73
2023/12/24 00:24:09;;;;;;;17.70;8.23;;;;;;;;;;10294468;28;20045;-76
2023/12/24 00:29:10;;;;;;;16.48;8.65;;;;;;;;;;10296706;28;20117;-77
2023/12/24 00:34:10;;;;;;;13.43;6.65;;;;;;;;;;10280354;28;20486;-81
2023/12/24 00:39:10;;;;;;;11.05;6.03;;;;;;;;;;10288067;28;20559;-73
2023/12/24 00:44:10;;;;;;;11.80;6.60;;;;;;;;;;10302287;28;20034;-74
2023/12/24 00:49:11;;;;;;;10.40;6.25;;;;;;;;;;10298762;28;20046;-77
2023/12/24 00:54:11;;;;;;;11.23;6.13;;;;;;;;;;10289432;28;20489;-78
2023/12/24 00:59:12;;;;;;;10.57;4.72;;;;;;;;;;10304279;28;20527;-71
2023/12/24 01:04:12;;;;;;;11.90;5.00;;;;;;;;;;10284304;28;20476;-78
2023/12/24 01:09:12;;;;;;;11.85;5.45;;;;;;;;;;10292831;28;20023;-73
2023/12/24 01:14:12;;;;;;;12.75;4.38;;;;;;;;;;10277518;28;20030;-73
2023/12/24 01:19:13;;;;;;;5.13;2.10;;;;;;;;;;10290930;28;20170;-74
2023/12/24 01:24:13;;;;;;;3.60;1.55;;;;;;;;;;10279139;28;20093;-73
2023/12/24 01:29:13;;;;;;;2.83;1.73;;;;;;;;;;10282242;28;20595;-71
2023/12/24 01:34:14;;;;;;;3.10;1.40;;;;;;;;;;10302381;28;20031;-72
2023/12/24 01:39:15;;;;;;;3.50;1.17;;;;;;;;;;10320758;28;20033;-73
2023/12/24 01:44:15;;;;;;;2.25;1.20;;;;;;;;;;10297286;28;20422;-75
2023/12/24 01:49:15;;;;;;;5.03;1.63;;;;;;;;;;10283336;28;20102;-72
2023/12/24 01:54:15;;;;;;;3.88;1.33;;;;;;;;;;10295733;28;20045;-72
2023/12/24 01:59:16;;;;;;;3.10;0.98;;;;;;;;;;10303463;28;20061;-72
2023/12/24 02:04:16;;;;;;;1.03;0.70;;;;;;;;;;10303834;28;20034;-74
2023/12/24 02:09:16;;;;;;;0.82;0.75;;;;;;;;;;10300272;28;20022;-75
2023/12/24 02:14:16;;;;;;;3.22;0.80;;;;;;;;;;10301307;28;20422;-71
2023/12/24 02:19:18;;;;;;;3.35;1.10;;;;;;;;;;10300740;28;20077;-73
2023/12/24 02:24:18;;;;;;;3.20;1.40;;;;;;;;;;10295024;28;20464;-73
2023/12/24 02:29:20;;;;;;;2.35;1.33;;;;;;;;;;10304556;28;20026;-74
2023/12/24 02:34:21;;;;;;;3.08;1.58;;;;;;;;;;10298326;28;20705;-72
2023/12/24 02:39:21;;;;;;;3.33;1.38;;;;;;;;;;10302010;28;20117;-73
2023/12/24 02:44:21;;;;;;;4.60;1.00;;;;;;;;;;10311243;28;20347;-73
2023/12/24 02:49:21;;;;;;;4.00;1.52;;;;;;;;;;10306410;28;20471;-73
2023/12/24 02:54:22;;;;;;;3.25;1.20;;;;;;;;;;10303336;28;20039;-72
2023/12/24 02:59:25;;;;;;;1.33;1.10;;;;;;;;;;10306048;28;20036;-72
2023/12/24 03:04:25;;;;;;;2.35;1.58;;;;;;;;;;10299439;28;20409;-72
2023/12/24 03:09:25;;;;;;;2.35;1.33;;;;;;;;;;10301199;28;20046;-72
2023/12/24 03:14:25;;;;;;;3.05;0.85;;;;;;;;;;10306757;28;20018;-71
2023/12/24 03:19:26;;;;;;;1.52;0.90;;;;;;;;;;10306482;28;20565;-77
2023/12/24 03:24:26;;;;;;;1.60;0.88;;;;;;;;;;10303056;28;21257;-73
2023/12/24 03:29:26;;;;;;;1.85;1.00;;;;;;;;;;10304816;28;20023;-71
2023/12/24 03:34:26;;;;;;;3.35;1.15;;;;;;;;;;10292576;28;20738;-75
2023/12/24 03:39:27;;;;;;;2.65;1.10;;;;;;;;;;10302381;28;20057;-73
2023/12/24 03:44:27;;;;;;;1.30;0.90;;;;;;;;;;10302622;28;20026;-73
2023/12/24 03:49:27;;;;;;;1.90;1.17;;;;;;;;;;10305117;28;20540;-72
2023/12/24 03:54:27;;;;;;;2.63;1.30;;;;;;;;;;10300442;28;20514;-72
2023/12/24 03:59:30;;;;;;;1.50;1.20;;;;;;;;;;10306446;28;20029;-72
2023/12/24 04:04:30;;;;;;;2.50;1.35;;;;;;;;;;10301544;28;20022;-74
2023/12/24 04:09:31;;;;;;;3.42;1.65;;;;;;;;;;10301742;28;20058;-73
2023/12/24 04:14:31;;;;;;;3.40;1.50;;;;;;;;;;10307679;28;20505;-72
2023/12/24 04:19:32;;;;;;;2.05;1.25;;;;;;;;;;10299820;28;20018;-74
2023/12/24 04:24:32;;;;;;;3.30;1.30;;;;;;;;;;10292372;28;20058;-75
2023/12/24 04:29:32;;;;;;;3.10;1.45;;;;;;;;;;10285565;28;20028;-73
2023/12/24 04:34:32;;;;;;;3.53;1.60;;;;;;;;;;10302325;28;20408;-73
2023/12/24 04:39:32;;;;;;;1.83;1.40;;;;;;;;;;10297343;28;20029;-77
2023/12/24 04:44:36;;;;;;;1.40;1.30;;;;;;;;;;10296508;28;20038;-73
2023/12/24 04:49:37;;;;;;;1.67;1.45;;;;;;;;;;10306079;28;20046;-71
2023/12/24 04:54:37;;;;;;;7.80;1.40;;;;;;;;;;10292307;28;20125;-75
2023/12/24 04:59:38;;;;;;;3.78;1.50;;;;;;;;;;10298385;28;20512;-74
2023/12/24 05:04:39;;;;;;;3.85;1.67;;;;;;;;;;10296048;28;20027;-72
2023/12/24 05:09:39;;;;;;;4.05;1.42;;;;;;;;;;10317537;28;20053;-72
2023/12/24 05:14:40;;;;;;;3.42;1.05;;;;;;;;;;10297497;28;20502;-72
2023/12/24 05:19:40;;;;;;;2.45;0.95;;;;;;;;;;10294494;28;20019;-75
2023/12/24 05:24:40;;;;;;;1.50;0.70;;;;;;;;;;10278079;28;20027;-76
2023/12/24 05:29:41;;;;;;;1.98;1.13;;;;;;;;;;10278068;28;20030;-73
2023/12/24 05:34:41;;;;;;;6.53;1.80;;;;;;;;;;10286041;28;20049;-77
2023/12/24 05:39:42;;;;;;;5.07;2.70;;;;;;;;;;10298921;28;20062;-74
2023/12/24 05:44:42;;;;;;;4.68;1.70;;;;;;;;;;10301485;28;20026;-76
2023/12/24 05:49:42;;;;;;;5.03;1.30;;;;;;;;;;10278716;28;20433;-74
2023/12/24 05:54:43;;;;;;;1.13;0.68;;;;;;;;;;10298080;28;20061;-73
2023/12/24 05:59:43;;;;;;;2.45;0.95;;;;;;;;;;10298183;28;20031;-77
2023/12/24 06:04:43;;;;;;;2.50;1.08;;;;;;;;;;10301119;28;20559;-72
2023/12/24 06:09:43;;;;;;;3.40;1.67;;;;;;;;;;10299394;28;20074;-72
2023/12/24 06:14:44;;;;;;;2.07;1.13;;;;;;;;;;10299370;28;20033;-72
2023/12/24 06:19:44;;;;;;;1.52;1.15;;;;;;;;;;10298308;28;20113;-71
2023/12/24 06:24:44;;;;;;;1.17;0.80;;;;;;;;;;10303702;28;20023;-72
2023/12/24 06:29:44;;;;;;;1.73;1.08;;;;;;;;;;10310496;28;20022;-73
2023/12/24 06:34:45;;;;;;;2.05;1.10;;;;;;;;;;10305401;28;20201;-73
2023/12/24 06:39:46;;;;;;;2.92;0.80;;;;;;;;;;10304351;28;20023;-72
2023/12/24 06:44:46;;;;;;;3.10;0.85;;;;;;;;;;10303813;28;20026;-83
2023/12/24 06:49:46;;;;;;;1.58;0.80;;;;;;;;;;10297314;28;20038;-75
2023/12/24 06:54:47;;;;;;;1.55;0.70;;;;;;;;;;10298844;28;20034;-77
2023/12/24 06:59:47;;;;;;;2.47;0.93;;;;;;;;;;10297696;28;20029;-74
2023/12/24 07:04:48;;;;;;;7.38;0.80;;;;;;;;;;10305497;28;20022;-75
2023/12/24 07:09:48;;;;;;;7.10;1.07;;;;;;;;;;10295625;28;20019;-74
2023/12/24 07:14:48;;;;;;;3.50;0.90;;;;;;;;;;10284911;28;20535;-76
2023/12/24 07:19:48;;;;;;;5.72;1.27;;;;;;;;;;10292108;28;20117;-74
2023/12/24 07:24:49;;;;;;;4.25;1.33;;;;;;;;;;10303830;28;20539;-72
2023/12/24 07:29:49;;;;;;;7.20;1.03;;;;;;;;;;10296918;28;20474;-71
2023/12/24 07:34:49;;;;;;;9.57;1.23;;;;;;;;;;10301068;28;20516;-73
2023/12/24 07:39:49;;;;;;;6.15;1.48;;;;;;;;;;10282500;28;20337;-74
2023/12/24 07:44:51;;;;;;;3.72;0.95;;;;;;;;;;10301889;28;20034;-75
2023/12/24 07:49:51;;;;;;;10.02;4.25;;;;;;;;;;10288928;28;20034;-74
2023/12/24 07:54:51;;;;;;;9.90;5.53;;;;;;;;;;10307426;28;20535;-74
2023/12/24 07:59:51;;;;;;;10.40;5.45;;;;;;;;;;10299540;28;20032;-74
2023/12/24 08:04:54;;;;;;;12.75;5.32;;;;;;;;;;10289206;28;20480;-74
2023/12/24 08:09:56;;;;;;;8.02;3.83;;;;;;;;;;10299425;28;20022;-73
2023/12/24 08:14:56;;;;;;;9.65;3.40;;;;;;;;;;10295525;28;20395;-74
2023/12/24 08:19:56;;;;;;;5.65;3.22;;;;;;;;;;10299752;28;20018;-76
2023/12/24 08:24:57;;;;;;;13.07;3.57;;;;;;;;;;10291311;28;20027;-73
2023/12/24 08:29:57;;;;;;;5.70;2.73;;;;;;;;;;10297175;28;20018;-73
2023/12/24 08:34:57;;;;;;;10.88;3.33;;;;;;;;;;10294350;28;20030;-72
2023/12/24 08:39:57;;;;;;;9.63;4.15;;;;;;;;;;10298160;28;20023;-73
2023/12/24 08:44:57;;;;;;;11.23;3.42;;;;;;;;;;10280452;28;20026;-71
2023/12/24 08:49:58;;;;;;;9.52;4.47;;;;;;;;;;10298144;28;20473;-78
2023/12/24 08:54:58;;;;;;;13.18;3.60;;;;;;;;;;10290155;28;20033;-73
2023/12/24 08:59:58;;;;;;;6.30;3.22;;;;;;;;;;10298883;28;20105;-77
2023/12/24 09:04:58;;;;;;;17.05;6.85;;;;;;;;;;10285162;28;20033;-76
2023/12/24 09:09:59;;;;;;;9.73;4.90;;;;;;;;;;10294508;28;20030;-74
2023/12/24 09:14:59;;;;;;;6.55;3.10;;;;;;;;;;10297213;28;20023;-72
2023/12/24 09:19:59;;;;;;;4.95;2.33;;;;;;;;;;10296371;28;20041;-73
2023/12/24 09:24:59;;;;;;;5.40;1.90;;;;;;;;;;10298671;28;20386;-77
2023/12/24 09:30:04;;;;;;;15.17;4.43;;;;;;;;;;10294279;28;20030;-73
2023/12/24 09:35:04;;;;;;;4.55;2.30;;;;;;;;;;10304309;28;20034;-74
2023/12/24 09:40:10;;;;;;;4.97;1.98;;;;;;;;;;10297911;28;20026;-74
2023/12/24 09:45:10;;;;;;;8.60;3.53;;;;;;;;;;10299002;28;20030;-77
2023/12/24 09:50:10;;;;;;;12.33;2.40;;;;;;;;;;10290419;28;20046;-73
2023/12/24 09:55:11;;;;;;;15.65;1.55;;;;;;;;;;10282951;28;20464;-74
2023/12/24 10:00:12;;;;;;;7.03;1.83;;;;;;;;;;10307828;28;20045;-76
2023/12/24 10:05:14;;;;;;;3.25;1.55;;;;;;;;;;10294216;28;20085;-73
2023/12/24 10:10:14;;;;;;;13.05;3.10;;;;;;;;;;10304039;28;20026;-75
2023/12/24 10:15:20;;;;;;;8.32;3.90;;;;;;;;;;10299114;28;20038;-74
2023/12/24 10:20:20;;;;;;;1273.68;999.90;;;;;;;;;;10298383;28;21989;-73
2023/12/24 10:25:21;;;;;;;1082.30;980.00;;;;;;;;;;10308138;28;20449;-74
2023/12/24 10:30:21;;;;;;;1162.35;999.90;;;;;;;;;;10292306;28;20034;-73
2023/12/24 10:35:26;;;;;;;821.97;731.70;;;;;;;;;;10295049;28;20146;-74
2023/12/24 10:40:26;;;;;;;1151.60;999.90;;;;;;;;;;10291898;28;20027;-74
2023/12/24 10:45:26;;;;;;;1123.25;999.90;;;;;;;;;;10302606;28;20037;-74
2023/12/24 10:50:26;;;;;;;1145.45;999.90;;;;;;;;;;10303198;28;20474;-74
2023/12/24 10:55:28;;;;;;;1113.72;994.08;;;;;;;;;;10301508;28;20035;-73
2023/12/24 11:00:29;;;;;;;157.65;139.35;;;;;;;;;;10289151;28;20383;-72
2023/12/24 11:05:46;;;;;;;601.05;554.05;;;;;;;;;;10302095;28;20026;-73
2023/12/24 11:10:53;;;;;;;1054.47;961.03;;;;;;;;;;10304537;28;20018;-72
2023/12/24 11:15:54;;;;;;;1125.72;999.90;;;;;;;;;;10307315;28;20030;-74
2023/12/24 11:20:57;;;;;;;1069.53;964.80;;;;;;;;;;10306696;28;20477;-74
2023/12/24 11:25:57;;;;;;;1049.95;947.25;;;;;;;;;;10297482;28;20030;-75
2023/12/24 11:30:58;;;;;;;1061.97;957.42;;;;;;;;;;10301900;28;20467;-76
2023/12/24 11:36:01;;;;;;;1079.15;974.72;;;;;;;;;;10300922;28;20018;-74
2023/12/24 11:41:06;;;;;;;1084.93;977.97;;;;;;;;;;10300831;28;20046;-76
2023/12/24 11:46:09;;;;;;;987.17;888.80;;;;;;;;;;10305574;28;20053;-74
2023/12/24 11:51:10;;;;;;;753.80;585.35;;;;;;;;;;10304904;28;20361;-74
2023/12/24 11:56:13;;;;;;;709.15;494.42;;;;;;;;;;10300745;28;20022;-73
2023/12/24 12:01:14;;;;;;;1047.05;942.65;;;;;;;;;;10300033;28;20014;-75
2023/12/24 12:06:15;;;;;;;788.42;669.80;;;;;;;;;;10303900;28;20029;-75
2023/12/24 12:11:15;;;;;;;1073.57;969.45;;;;;;;;;;10302818;28;20037;-74
2023/12/24 12:16:15;;;;;;;648.58;297.90;;;;;;;;;;10306947;28;20093;-79
2023/12/24 12:21:15;;;;;;;846.55;720.55;;;;;;;;;;10309523;28;20140;-80
2023/12/24 12:26:15;;;;;;;898.78;801.88;;;;;;;;;;10293993;28;20595;-72
2023/12/24 12:31:16;;;;;;;1000.03;898.42;;;;;;;;;;10282287;28;20496;-75
2023/12/24 12:36:17;;;;;;;995.53;894.22;;;;;;;;;;10298982;28;20029;-73
2023/12/24 12:41:17;;;;;;;947.22;847.40;;;;;;;;;;10290784;28;20026;-77
2023/12/24 12:46:17;;;;;;;975.80;875.45;;;;;;;;;;10288155;28;20022;-75
2023/12/24 12:51:17;;;;;;;755.55;459.77;;;;;;;;;;10296163;28;20046;-77
2023/12/24 12:56:19;;;;;;;917.35;820.75;;;;;;;;;;10271675;28;20034;-75
2023/12/24 13:01:22;;;;;;;715.10;417.33;;;;;;;;;;10290075;28;20022;-79
2023/12/24 13:06:22;;;;;;;792.63;633.90;;;;;;;;;;10293762;28;20018;-74
2023/12/24 13:11:22;;;;;;;629.17;164.00;;;;;;;;;;10296048;28;20025;-79
2023/12/24 13:16:22;;;;;;;627.83;180.23;;;;;;;;;;10297459;28;20026;-77
2023/12/24 13:21:24;;;;;;;785.97;595.10;;;;;;;;;;10285794;28;20045;-77
2023/12/24 13:26:25;;;;;;;990.90;890.80;;;;;;;;;;10297452;28;20022;-75
2023/12/24 13:31:26;;;;;;;977.85;878.55;;;;;;;;;;10305308;28;20478;-75
2023/12/24 13:36:26;;;;;;;962.00;863.83;;;;;;;;;;10308406;28;20491;-74
2023/12/24 13:41:28;;;;;;;1005.95;904.05;;;;;;;;;;10299757;28;20049;-76
2023/12/24 13:46:29;;;;;;;992.67;891.60;;;;;;;;;;10296084;28;20113;-76
2023/12/24 13:51:30;;;;;;;984.17;883.50;;;;;;;;;;10308326;28;20181;-80
2023/12/24 13:56:34;;;;;;;1000.63;899.45;;;;;;;;;;10302027;28;20014;-73
2023/12/24 14:01:36;;;;;;;844.58;743.67;;;;;;;;;;10308802;28;20015;-75
2023/12/24 14:06:36;;;;;;;956.90;857.92;;;;;;;;;;10314301;28;20351;-76
2023/12/24 14:11:38;;;;;;;962.63;863.05;;;;;;;;;;10308555;28;20448;-73
2023/12/24 14:16:38;;;;;;;989.75;889.00;;;;;;;;;;10305491;28;20023;-72
2023/12/24 14:21:38;;;;;;;998.80;897.42;;;;;;;;;;10308450;28;20014;-74
2023/12/24 14:26:39;;;;;;;968.00;868.57;;;;;;;;;;10295443;28;20572;-74
2023/12/24 14:31:40;;;;;;;955.53;857.03;;;;;;;;;;10302558;28;20812;-73
2023/12/24 14:36:40;;;;;;;969.90;870.28;;;;;;;;;;10307339;28;20022;-73
2023/12/24 14:41:40;;;;;;;998.85;897.80;;;;;;;;;;10300881;28;20084;-74
2023/12/24 14:46:40;;;;;;;1019.53;916.72;;;;;;;;;;10309119;28;20025;-73
2023/12/24 14:51:41;;;;;;;961.97;862.40;;;;;;;;;;10296262;28;20074;-74
2023/12/24 14:56:41;;;;;;;972.75;871.80;;;;;;;;;;10292229;28;20026;-74
2023/12/24 15:01:45;;;;;;;973.43;874.37;;;;;;;;;;10295438;28;20481;-72
2023/12/24 15:06:45;;;;;;;978.63;878.65;;;;;;;;;;10301308;28;20022;-73
2023/12/24 15:11:46;;;;;;;965.08;867.25;;;;;;;;;;10282435;28;20500;-75
2023/12/24 15:16:46;;;;;;;963.72;868.25;;;;;;;;;;10300636;28;20026;-77
2023/12/24 15:21:47;;;;;;;889.78;793.75;;;;;;;;;;10292839;28;20042;-75
2023/12/24 15:26:47;;;;;;;930.30;833.67;;;;;;;;;;10318416;28;20019;-78
2023/12/24 15:31:48;;;;;;;882.73;790.63;;;;;;;;;;10303449;28;20400;-76
2023/12/24 15:36:48;;;;;;;908.10;811.60;;;;;;;;;;10298112;28;20579;-76
2023/12/24 15:41:48;;;;;;;882.58;791.45;;;;;;;;;;10296817;28;20552;-78
2023/12/24 15:46:49;;;;;;;869.95;787.05;;;;;;;;;;10294544;28;20023;-75
2023/12/24 15:51:49;;;;;;;827.65;747.22;;;;;;;;;;10291457;28;20023;-75
2023/12/24 15:56:50;;;;;;;842.47;762.92;;;;;;;;;;10288527;28;20049;-74
2023/12/24 16:01:50;;;;;;;860.47;776.72;;;;;;;;;;10304598;28;20027;-76
2023/12/24 16:06:51;;;;;;;871.90;782.63;;;;;;;;;;10278650;28;20054;-78
2023/12/24 16:11:51;;;;;;;852.60;765.05;;;;;;;;;;10301013;28;20029;-76
2023/12/24 16:16:51;;;;;;;839.80;759.72;;;;;;;;;;10291399;28;20505;-79
2023/12/24 16:21:52;;;;;;;831.20;744.75;;;;;;;;;;10298714;28;20368;-76
2023/12/24 16:26:52;;;;;;;881.20;787.67;;;;;;;;;;10273707;28;20030;-76
2023/12/24 16:31:53;;;;;;;863.28;773.97;;;;;;;;;;10299755;28;20040;-75
2023/12/24 16:36:53;;;;;;;893.72;806.03;;;;;;;;;;10295851;28;20573;-72
2023/12/24 16:41:53;;;;;;;880.15;792.55;;;;;;;;;;10296384;28;20019;-78
2023/12/24 16:46:53;;;;;;;878.80;788.83;;;;;;;;;;10294123;28;20544;-77
2023/12/24 16:51:55;;;;;;;876.88;786.95;;;;;;;;;;10292962;28;20030;-84
2023/12/24 16:56:55;;;;;;;909.50;818.33;;;;;;;;;;10281160;28;20029;-76
2023/12/24 17:01:55;;;;;;;868.85;775.53;;;;;;;;;;10301998;28;20049;-76
2023/12/24 17:06:55;;;;;;;885.40;795.13;;;;;;;;;;10294771;28;20014;-77
2023/12/24 17:11:56;;;;;;;887.08;791.40;;;;;;;;;;10294474;28;20018;-75
2023/12/24 17:16:56;;;;;;;876.28;784.22;;;;;;;;;;10297466;28;20015;-80
2023/12/24 17:21:56;;;;;;;855.07;746.00;;;;;;;;;;10280522;28;20022;-76
2023/12/24 17:26:56;;;;;;;843.67;750.75;;;;;;;;;;10280097;28;20117;-74
2023/12/24 17:31:57;;;;;;;838.10;744.38;;;;;;;;;;10278501;28;20014;-75
2023/12/24 17:36:57;;;;;;;833.83;750.00;;;;;;;;;;10273801;28;20485;-78
2023/12/24 17:41:57;;;;;;;828.22;744.90;;;;;;;;;;10267040;28;20030;-78
2023/12/24 17:46:59;;;;;;;805.60;726.90;;;;;;;;;;10260267;28;20470;-78
2023/12/24 17:52:00;;;;;;;788.83;717.95;;;;;;;;;;10261063;28;20550;-72
2023/12/24 17:57:01;;;;;;;792.10;721.85;;;;;;;;;;10258227;28;20014;-77
2023/12/24 18:02:01;;;;;;;819.85;742.00;;;;;;;;;;10277732;28;20026;-73
2023/12/24 18:07:01;;;;;;;837.55;757.88;;;;;;;;;;10278401;28;20502;-74
2023/12/24 18:12:02;;;;;;;892.57;794.03;;;;;;;;;;10274294;28;20025;-78
2023/12/24 18:17:05;;;;;;;866.05;753.85;;;;;;;;;;10317735;23;20053;-76
2023/12/24 18:22:05;;;;;;;864.38;763.20;;;;;;;;;;10297379;28;20027;-75
2023/12/24 18:27:05;;;;;;;865.20;745.42;;;;;;;;;;10313226;23;20118;-77
2023/12/24 18:32:06;;;;;;;850.67;742.38;;;;;;;;;;10313310;28;20058;-76
2023/12/24 18:37:08;;;;;;;851.95;714.97;;;;;;;;;;10301860;28;20363;-78
2023/12/24 18:42:08;;;;;;;853.42;730.30;;;;;;;;;;10317695;28;20030;-75
2023/12/24 18:47:11;;;;;;;817.40;698.92;;;;;;;;;;10302722;28;20033;-76
2023/12/24 18:52:11;;;;;;;840.05;686.20;;;;;;;;;;10316087;28;20089;-77
2023/12/24 18:57:11;;;;;;;851.78;730.03;;;;;;;;;;10315466;28;20362;-77
2023/12/24 19:02:11;;;;;;;851.97;731.88;;;;;;;;;;10301258;28;20057;-76
2023/12/24 19:07:12;;;;;;;778.13;685.25;;;;;;;;;;10298353;28;20308;-77
2023/12/24 19:12:12;;;;;;;834.60;725.75;;;;;;;;;;10294945;28;20015;-77
2023/12/24 19:17:13;;;;;;;812.15;614.45;;;;;;;;;;10300049;28;20030;-78
2023/12/24 19:22:13;;;;;;;827.53;614.22;;;;;;;;;;10300217;28;20039;-77
2023/12/24 19:27:13;;;;;;;827.78;587.05;;;;;;;;;;10325570;28;20037;-81
2023/12/24 19:32:14;;;;;;;331.30;310.65;;;;;;;;;;10311038;28;20049;-80
2023/12/24 19:37:14;;;;;;;714.63;600.30;;;;;;;;;;10318452;28;20354;-81
2023/12/24 19:42:14;;;;;;;629.38;566.13;;;;;;;;;;10317148;28;20338;-78
2023/12/24 19:47:14;;;;;;;24.52;9.27;;;;;;;;;;10327973;28;20338;-83
2023/12/24 19:52:15;;;;;;;25.00;9.60;;;;;;;;;;10315408;28;20052;-87
2023/12/24 19:57:23;;;;;;;27.63;10.73;;;;;;;;;;10298868;28;20275;-80
2023/12/24 20:02:23;;;;;;;24.52;8.50;;;;;;;;;;10311603;28;20022;-83
2023/12/24 20:07:24;;;;;;;24.63;9.93;;;;;;;;;;10306558;28;20392;-79
2023/12/24 20:12:28;;;;;;;13.90;8.07;;;;;;;;;;10315034;28;20062;-84
2023/12/24 20:17:33;;;;;;;23.02;8.20;;;;;;;;;;10311221;28;20029;-89
2023/12/24 20:22:33;;;;;;;16.33;7.40;;;;;;;;;;10312107;28;20069;-87
2023/12/24 20:27:35;;;;;;;16.97;6.80;;;;;;;;;;10328292;28;20366;-90
2023/12/24 20:32:41;;;;;;;17.27;7.47;;;;;;;;;;10349067;28;20022;-86
2023/12/24 20:37:49;;;;;;;23.25;8.25;;;;;;;;;;10344351;28;20040;-87
2023/12/24 20:42:49;;;;;;;23.27;8.40;;;;;;;;;;10331778;28;20033;-78
2023/12/24 20:48:17;;;;;;;21.63;7.93;;;;;;;;;;10348943;28;20052;-86
2023/12/24 20:53:17;;;;;;;30.15;12.07;;;;;;;;;;10333673;28;20030;-86
2023/12/24 20:58:18;;;;;;;17.63;6.43;;;;;;;;;;10353509;28;20304;-82
2023/12/24 21:08:50;;;;;;;25.10;7.27;;;;;;;;;;10358442;28;20053;-76
2023/12/24 21:13:50;;;;;;;16.05;7.22;;;;;;;;;;10391070;28;20132;-75
2023/12/24 21:18:50;;;;;;;23.05;8.68;;;;;;;;;;10394739;28;20021;-78
2023/12/24 21:23:51;;;;;;;20.35;9.80;;;;;;;;;;10409637;28;20029;-79
2023/12/24 21:28:51;;;;;;;19.55;8.40;;;;;;;;;;10394927;28;20077;-74
2023/12/24 21:33:53;;;;;;;20.10;9.60;;;;;;;;;;10389311;28;20037;-82
2023/12/24 21:38:53;;;;;;;21.08;8.25;;;;;;;;;;10405878;28;20018;-78
2023/12/24 21:43:54;;;;;;;19.20;8.98;;;;;;;;;;10393370;28;20084;-74
2023/12/24 21:48:55;;;;;;;15.07;7.50;;;;;;;;;;10402137;28;20116;-75
2023/12/24 21:53:55;;;;;;;12.23;6.90;;;;;;;;;;10407140;28;20025;-77
2023/12/24 21:58:58;;;;;;;28.90;8.40;;;;;;;;;;10391974;23;20366;-77
2023/12/24 22:03:58;;;;;;;22.13;7.25;;;;;;;;;;10378314;28;20219;-77
2023/12/24 22:08:58;;;;;;;16.95;6.32;;;;;;;;;;10377465;28;20037;-78
2023/12/24 22:14:00;;;;;;;21.90;8.07;;;;;;;;;;10377953;28;20013;-78
2023/12/24 22:19:00;;;;;;;21.20;7.90;;;;;;;;;;10381480;28;20030;-78
2023/12/24 22:24:00;;;;;;;26.35;7.05;;;;;;;;;;10380151;28;20401;-79
2023/12/24 22:29:01;;;;;;;15.00;6.63;;;;;;;;;;10379711;28;20084;-78
2023/12/24 22:34:01;;;;;;;19.85;7.53;;;;;;;;;;10379774;28;20018;-77
2023/12/24 22:39:02;;;;;;;12.27;6.03;;;;;;;;;;10379450;28;20028;-78
2023/12/24 22:44:03;;;;;;;24.38;6.93;;;;;;;;;;10383651;28;20037;-77
2023/12/24 22:49:03;;;;;;;14.70;6.40;;;;;;;;;;10382165;28;20033;-77
2023/12/24 22:54:03;;;;;;;13.05;6.47;;;;;;;;;;10381021;28;20037;-77
2023/12/24 22:59:03;;;;;;;15.15;6.32;;;;;;;;;;10380631;28;20049;-77
2023/12/24 23:04:04;;;;;;;18.77;6.45;;;;;;;;;;10379542;28;20319;-76
2023/12/24 23:09:04;;;;;;;15.68;7.35;;;;;;;;;;10395722;28;20052;-78
2023/12/24 23:14:04;;;;;;;25.25;8.55;;;;;;;;;;10381467;28;20180;-77
2023/12/24 23:19:04;;;;;;;13.88;6.40;;;;;;;;;;10363736;28;20075;-79
2023/12/24 23:24:05;;;;;;;14.30;6.70;;;;;;;;;;10379157;28;20018;-77
2023/12/24 23:29:05;;;;;;;18.75;7.90;;;;;;;;;;10362273;28;20010;-77
2023/12/24 23:34:05;;;;;;;12.57;6.88;;;;;;;;;;10380607;28;20018;-77
2023/12/24 23:39:06;;;;;;;13.57;5.70;;;;;;;;;;10380301;28;20351;-78
2023/12/24 23:44:06;;;;;;;17.58;8.20;;;;;;;;;;10378479;28;20018;-78
2023/12/24 23:49:06;;;;;;;16.80;7.65;;;;;;;;;;10378280;28;20018;-78
2023/12/24 23:54:06;;;;;;;16.65;7.63;;;;;;;;;;10378229;28;20029;-78
2023/12/24 23:59:07;;;;;;;19.75;7.32;;;;;;;;;;10378837;28;20041;-78
